Quartzsite, Arizona
Current Conditions -  °F | °C
As of 2:52 PM on Friday 19 Dec 2014 (Local Time) from KBLH Reporting Station
Clear Clear  
Wind Chill: 62°   Ceiling: Unl
Heat Index: 62°   Visibility: 10mi
Dew Point: 43°   Wind: 0mph
Humidity: 50%   Direction: NA
Pressure: 30.17"   Gusts: NA
Location:  33.67°N, 114.22°W
Report Text: KBLH 192152Z AUTO 00000KT 10SM CLR 17/06 A3017 RMK AO2 SLP213 T01670061
Loading
Personal Weather Stations






























Interactive Weather Map New forecast layout! Learn more

10-Day Weather Forecast

Advertisements
Track Severe Weather on mobile